createdAt,value
2022-09-28T00:00:38.731Z,10.20
2022-09-28T00:03:47.067Z,10.11
2022-09-28T00:06:53.955Z,10.13
2022-09-28T00:09:59.209Z,9.95
2022-09-28T00:13:08.607Z,9.81
2022-09-28T00:16:20.673Z,9.74
2022-09-28T00:19:28.811Z,9.70
2022-09-28T00:22:40.320Z,9.69
2022-09-28T00:25:46.270Z,9.76
2022-09-28T00:28:57.350Z,9.88
2022-09-28T00:32:08.214Z,9.76
2022-09-28T00:35:15.249Z,9.63
2022-09-28T00:38:22.991Z,9.55
2022-09-28T00:41:31.374Z,9.57
2022-09-28T00:44:44.441Z,9.58
2022-09-28T00:48:00.185Z,9.75
2022-09-28T00:51:14.056Z,9.77
2022-09-28T00:54:20.239Z,9.76
2022-09-28T00:57:30.434Z,9.87
2022-09-28T01:00:37.593Z,9.95
2022-09-28T01:03:50.397Z,10.07
2022-09-28T01:07:02.002Z,10.06
2022-09-28T01:10:09.289Z,10.08
2022-09-28T01:13:20.014Z,10.15
2022-09-28T01:16:44.449Z,10.15
2022-09-28T01:20:32.571Z,10.07
2022-09-28T01:24:14.646Z,10.02
2022-09-28T01:27:32.260Z,9.93
2022-09-28T01:31:08.577Z,9.88
2022-09-28T01:34:26.226Z,9.84
2022-09-28T01:37:43.411Z,9.83
2022-09-28T01:40:54.326Z,9.78
2022-09-28T01:44:04.284Z,9.71
2022-09-28T01:47:15.852Z,9.74
2022-09-28T01:50:26.988Z,9.74
2022-09-28T01:53:46.586Z,9.70
2022-09-28T01:56:58.846Z,9.70
2022-09-28T02:00:12.378Z,9.76
2022-09-28T02:03:29.048Z,9.83
2022-09-28T02:06:48.564Z,9.94
2022-09-28T02:10:04.089Z,10.03
2022-09-28T02:13:20.312Z,10.16
2022-09-28T02:16:34.201Z,10.22
2022-09-28T02:19:42.753Z,10.22
2022-09-28T02:22:57.642Z,10.15
2022-09-28T02:26:13.125Z,10.11
2022-09-28T02:29:21.117Z,10.03
2022-09-28T02:32:32.605Z,10.08
2022-09-28T02:35:38.933Z,10.08
2022-09-28T02:38:47.678Z,10.08
2022-09-28T02:42:22.389Z,10.14
2022-09-28T02:46:01.334Z,10.10
2022-09-28T02:49:25.145Z,10.09
2022-09-28T02:53:04.888Z,10.02
2022-09-28T02:56:24.468Z,10.01
2022-09-28T02:59:47.998Z,10.01
2022-09-28T03:03:45.047Z,9.97
2022-09-28T03:07:10.991Z,9.93
2022-09-28T03:10:40.182Z,9.93
2022-09-28T03:13:47.767Z,9.95
2022-09-28T03:16:55.513Z,9.84
2022-09-28T03:20:03.810Z,9.83
2022-09-28T03:23:26.367Z,9.75
2022-09-28T03:26:35.045Z,9.69
2022-09-28T03:29:42.625Z,9.55
2022-09-28T03:32:57.594Z,9.57
2022-09-28T03:36:06.235Z,9.50
2022-09-28T03:39:15.424Z,9.54
2022-09-28T03:42:24.499Z,9.56
2022-09-28T03:45:34.667Z,9.50
2022-09-28T03:48:43.509Z,9.54
2022-09-28T03:51:52.852Z,9.51
2022-09-28T03:55:00.269Z,9.54
2022-09-28T03:58:06.568Z,9.56
2022-09-28T04:01:17.253Z,9.65
2022-09-28T04:04:26.047Z,9.70
2022-09-28T04:07:35.017Z,9.64
2022-09-28T04:10:43.763Z,9.68
2022-09-28T04:13:54.339Z,9.66
2022-09-28T04:17:03.415Z,9.67
2022-09-28T04:20:10.442Z,9.67
2022-09-28T04:23:17.946Z,9.73
2022-09-28T04:26:25.515Z,9.73
2022-09-28T04:29:31.811Z,9.69
2022-09-28T04:32:37.748Z,9.64
2022-09-28T04:35:42.072Z,9.53
2022-09-28T04:38:53.191Z,9.50
2022-09-28T04:42:02.332Z,9.52
2022-09-28T04:45:09.358Z,9.51
2022-09-28T04:48:15.541Z,9.38
2022-09-28T04:51:19.687Z,9.36
2022-09-28T04:54:25.203Z,9.36
2022-09-28T04:57:29.882Z,9.31
2022-09-28T05:00:37.684Z,9.35
2022-09-28T05:03:41.964Z,9.27
2022-09-28T05:06:47.517Z,9.13
2022-09-28T05:09:52.328Z,9.08
2022-09-28T05:12:58.582Z,9.12
2022-09-28T05:16:05.445Z,9.18
2022-09-28T05:19:12.447Z,9.17
2022-09-28T05:22:17.272Z,9.12
2022-09-28T05:25:22.334Z,9.14
2022-09-28T05:28:31.905Z,9.08
2022-09-28T05:31:43.724Z,9.09
2022-09-28T05:34:47.838Z,9.03
2022-09-28T05:37:52.756Z,9.11
2022-09-28T05:40:57.217Z,9.17
2022-09-28T05:44:02.952Z,9.29
2022-09-28T05:47:07.283Z,9.34
2022-09-28T05:50:12.212Z,9.41
2022-09-28T05:53:15.837Z,9.49
2022-09-28T05:56:20.000Z,9.48
2022-09-28T05:59:24.416Z,9.63
2022-09-28T06:02:28.055Z,9.72
2022-09-28T06:05:34.718Z,9.77
2022-09-28T06:08:38.156Z,9.82
2022-09-28T06:11:43.118Z,9.96
2022-09-28T06:14:47.659Z,10.02
2022-09-28T06:18:01.265Z,10.03
2022-09-28T06:21:08.396Z,10.10
2022-09-28T06:24:11.897Z,10.17
2022-09-28T06:27:16.674Z,10.18
2022-09-28T06:30:22.053Z,10.19
2022-09-28T06:33:26.709Z,10.25
2022-09-28T06:36:31.730Z,10.50
2022-09-28T06:39:35.782Z,10.63
2022-09-28T06:42:40.315Z,10.81
2022-09-28T06:45:53.381Z,10.95
2022-09-28T06:48:57.731Z,11.06
2022-09-28T06:52:03.004Z,11.13
2022-09-28T06:55:08.337Z,11.20
2022-09-28T06:58:17.436Z,11.28
2022-09-28T07:01:21.434Z,11.41
2022-09-28T07:04:26.516Z,11.46
2022-09-28T07:07:31.808Z,11.56
2022-09-28T07:10:34.841Z,11.66
2022-09-28T07:13:56.246Z,12.11
2022-09-28T07:17:13.060Z,12.63
2022-09-28T07:20:19.804Z,13.60
2022-09-28T07:23:26.727Z,14.54
2022-09-28T07:26:35.779Z,16.31
2022-09-28T07:29:39.238Z,18.24
2022-09-28T07:32:43.646Z,18.87
2022-09-28T07:35:55.620Z,20.19
2022-09-28T07:39:03.482Z,20.50
2022-09-28T07:42:07.507Z,21.11
2022-09-28T07:45:11.926Z,21.44
2022-09-28T07:48:17.073Z,20.97
2022-09-28T07:51:23.508Z,23.39
2022-09-28T07:54:27.536Z,23.45
2022-09-28T07:57:33.225Z,23.17
2022-09-28T08:00:38.134Z,21.12
2022-09-28T08:03:48.516Z,22.91
2022-09-28T08:06:51.382Z,23.35
2022-09-28T08:09:55.761Z,24.19
2022-09-28T08:13:04.791Z,24.57
2022-09-28T08:16:11.617Z,24.52
2022-09-28T08:19:14.758Z,24.41
2022-09-28T08:22:21.004Z,23.52
2022-09-28T08:25:25.487Z,21.39
2022-09-28T08:28:29.515Z,19.60
2022-09-28T08:31:33.083Z,20.78
2022-09-28T08:34:39.076Z,22.27
2022-09-28T08:37:45.869Z,22.50
2022-09-28T08:41:33.723Z,20.55
2022-09-28T08:44:45.888Z,18.89
2022-09-28T08:48:15.495Z,18.05
2022-09-28T08:51:32.219Z,17.35
2022-09-28T08:54:44.431Z,16.26
2022-09-28T08:58:01.784Z,15.93
2022-09-28T09:01:16.945Z,15.88
2022-09-28T09:04:21.199Z,15.42
2022-09-28T09:07:56.855Z,15.33
2022-09-28T09:11:19.105Z,15.13
2022-09-28T09:14:54.699Z,14.84
2022-09-28T09:18:23.539Z,14.67
2022-09-28T09:21:51.521Z,14.58
2022-09-28T09:25:07.433Z,14.58
2022-09-28T09:28:47.588Z,14.76
2022-09-28T09:32:04.807Z,14.88
2022-09-28T09:35:24.660Z,14.96
2022-09-28T09:38:42.254Z,15.13
2022-09-28T09:41:51.949Z,15.00
2022-09-28T09:45:00.698Z,14.82
2022-09-28T09:48:31.965Z,14.95
2022-09-28T09:51:48.956Z,15.21
2022-09-28T09:55:02.514Z,15.68
2022-09-28T09:58:14.786Z,16.04
2022-09-28T10:01:23.809Z,16.46
2022-09-28T10:04:41.403Z,16.55
2022-09-28T10:07:55.453Z,16.75
2022-09-28T10:11:12.817Z,16.80
2022-09-28T10:14:20.883Z,16.99
2022-09-28T10:17:27.514Z,17.06
2022-09-28T10:20:40.322Z,17.35
2022-09-28T10:23:45.552Z,17.08
2022-09-28T10:26:55.596Z,17.35
2022-09-28T10:30:02.557Z,17.57
2022-09-28T10:33:07.505Z,17.57
2022-09-28T10:36:11.835Z,17.89
2022-09-28T10:39:37.129Z,17.47
2022-09-28T10:42:41.309Z,17.68
2022-09-28T10:45:45.289Z,18.07
2022-09-28T10:48:54.601Z,18.17
2022-09-28T10:51:58.839Z,18.83
2022-09-28T10:55:04.606Z,20.68
2022-09-28T10:58:25.634Z,22.86
2022-09-28T11:01:33.976Z,22.85
2022-09-28T11:04:41.501Z,22.74
2022-09-28T11:07:48.069Z,22.88
2022-09-28T11:11:11.934Z,25.22
2022-09-28T11:14:25.615Z,23.11
2022-09-28T11:17:51.350Z,20.63
2022-09-28T11:21:14.727Z,20.46
2022-09-28T11:24:25.532Z,21.30
2022-09-28T11:27:29.984Z,23.77
2022-09-28T11:31:00.523Z,25.63
2022-09-28T11:34:14.475Z,29.16
2022-09-28T11:37:24.195Z,26.70
2022-09-28T11:40:53.603Z,24.98
2022-09-28T11:44:32.504Z,27.21
2022-09-28T11:47:47.571Z,26.63
2022-09-28T11:51:04.750Z,28.09
2022-09-28T11:54:29.097Z,27.94
2022-09-28T11:57:42.410Z,29.18
2022-09-28T12:00:52.391Z,30.14
2022-09-28T12:04:04.603Z,28.80
2022-09-28T12:07:16.639Z,28.60
2022-09-28T12:10:40.249Z,28.56
2022-09-28T12:13:53.297Z,27.61
2022-09-28T12:17:24.085Z,26.80
2022-09-28T12:20:32.639Z,27.95
2022-09-28T12:23:39.630Z,27.33
2022-09-28T12:26:49.191Z,30.66
2022-09-28T12:30:04.690Z,29.56
2022-09-28T12:33:12.745Z,25.94
2022-09-28T12:36:42.148Z,25.79
2022-09-28T12:39:59.818Z,26.26
2022-09-28T12:43:11.244Z,24.95
2022-09-28T12:46:56.675Z,23.58
2022-09-28T12:50:51.248Z,23.64
2022-09-28T12:54:19.841Z,25.35
2022-09-28T12:57:36.812Z,22.17
2022-09-28T13:00:59.655Z,21.57
2022-09-28T13:04:45.278Z,23.46
2022-09-28T13:08:19.405Z,22.73
2022-09-28T13:11:41.364Z,21.14
2022-09-28T13:14:51.382Z,18.75
2022-09-28T13:18:04.429Z,18.50
2022-09-28T13:21:19.118Z,18.99
2022-09-28T13:24:35.675Z,19.51
2022-09-28T13:27:45.655Z,18.72
2022-09-28T13:30:52.427Z,18.83
2022-09-28T13:33:59.365Z,19.07
2022-09-28T13:37:24.599Z,18.88
2022-09-28T13:41:06.317Z,19.49
2022-09-28T13:44:27.069Z,19.68
2022-09-28T13:47:49.597Z,19.29
2022-09-28T13:51:15.397Z,20.03
2022-09-28T13:54:41.388Z,20.26
2022-09-28T13:58:07.028Z,21.06
2022-09-28T14:01:18.841Z,20.10
2022-09-28T14:04:54.373Z,19.72
2022-09-28T14:08:21.973Z,19.00
2022-09-28T14:11:32.350Z,18.67
2022-09-28T14:14:51.930Z,18.72
2022-09-28T14:18:08.522Z,19.21
2022-09-28T14:21:46.235Z,19.31
2022-09-28T14:25:27.677Z,19.05
2022-09-28T14:28:50.722Z,18.81
2022-09-28T14:32:26.262Z,19.21
2022-09-28T14:35:42.496Z,19.20
2022-09-28T14:39:09.438Z,19.06
2022-09-28T14:42:19.388Z,18.93
2022-09-28T14:45:37.873Z,18.33
2022-09-28T14:49:02.163Z,18.45
2022-09-28T14:52:12.940Z,18.45
2022-09-28T14:55:24.218Z,18.21
2022-09-28T14:58:34.128Z,17.87
2022-09-28T15:01:40.708Z,17.80
2022-09-28T15:05:06.508Z,17.60
2022-09-28T15:08:14.064Z,17.45
2022-09-28T15:11:24.971Z,17.41
2022-09-28T15:14:36.831Z,17.22
2022-09-28T15:17:49.633Z,17.23
2022-09-28T15:20:56.983Z,17.29
2022-09-28T15:24:01.229Z,17.36
2022-09-28T15:27:16.340Z,17.37
2022-09-28T15:30:39.477Z,17.48
2022-09-28T15:34:04.651Z,17.52
2022-09-28T15:37:13.239Z,17.18
2022-09-28T15:40:31.274Z,17.25
2022-09-28T15:43:42.819Z,17.17
2022-09-28T15:46:49.576Z,17.01
2022-09-28T15:50:09.849Z,16.87
2022-09-28T15:53:20.235Z,16.85
2022-09-28T15:56:28.570Z,16.74
2022-09-28T15:59:42.905Z,16.56
2022-09-28T16:03:09.624Z,16.53
2022-09-28T16:06:16.399Z,16.50
2022-09-28T16:09:53.622Z,16.41
2022-09-28T16:13:14.877Z,16.36
2022-09-28T16:16:27.614Z,16.22
2022-09-28T16:19:39.303Z,16.07
2022-09-28T16:22:46.113Z,15.95
2022-09-28T16:26:01.566Z,15.91
2022-09-28T16:29:27.026Z,15.91
2022-09-28T16:33:02.764Z,15.85
2022-09-28T16:36:18.545Z,15.86
2022-09-28T16:39:26.503Z,15.78
2022-09-28T16:42:32.252Z,15.66
2022-09-28T16:45:40.546Z,15.79
2022-09-28T16:48:52.996Z,15.72
2022-09-28T16:51:58.400Z,15.73
2022-09-28T16:58:48.720Z,15.74
2022-09-28T17:01:58.616Z,15.69
2022-09-28T17:05:05.748Z,15.65
2022-09-28T17:08:18.155Z,15.65
2022-09-28T17:11:25.797Z,15.63
2022-09-28T17:14:33.574Z,15.65
2022-09-28T17:17:43.504Z,15.63
2022-09-28T17:20:53.157Z,15.61
2022-09-28T17:24:00.654Z,15.70
2022-09-28T17:27:17.143Z,15.61
2022-09-28T17:30:25.845Z,15.49
2022-09-28T17:33:32.001Z,15.56
2022-09-28T17:36:39.427Z,15.34
2022-09-28T17:39:48.176Z,15.11
2022-09-28T17:42:59.710Z,14.74
2022-09-28T17:46:12.483Z,14.49
2022-09-28T17:49:20.334Z,14.13
2022-09-28T17:52:28.430Z,13.90
2022-09-28T17:55:39.018Z,13.67
2022-09-28T17:58:48.866Z,13.31
2022-09-28T18:02:01.549Z,13.09
2022-09-28T18:05:11.879Z,12.96
2022-09-28T18:08:23.816Z,12.88
2022-09-28T18:11:30.723Z,12.96
2022-09-28T18:14:36.953Z,12.91
2022-09-28T18:17:45.801Z,12.84
2022-09-28T18:20:55.441Z,12.94
2022-09-28T18:24:00.796Z,12.87
2022-09-28T18:27:07.543Z,12.72
2022-09-28T18:30:12.288Z,12.56
2022-09-28T18:33:19.909Z,12.64
2022-09-28T18:36:33.808Z,12.48
2022-09-28T18:39:37.828Z,12.39
2022-09-28T18:42:42.843Z,12.39
2022-09-28T18:45:49.976Z,12.37
2022-09-28T18:48:57.404Z,12.34
2022-09-28T18:52:04.907Z,12.28
2022-09-28T18:55:14.326Z,12.45
2022-09-28T18:58:19.971Z,12.45
2022-09-28T19:01:31.395Z,12.38
2022-09-28T19:04:38.705Z,12.36
2022-09-28T19:07:45.959Z,12.35
2022-09-28T19:10:51.038Z,12.34
2022-09-28T19:13:59.051Z,12.39
2022-09-28T19:17:04.944Z,12.35
2022-09-28T19:20:12.837Z,12.36
2022-09-28T19:23:17.907Z,12.33
2022-09-28T19:26:27.805Z,12.35
2022-09-28T19:29:32.516Z,12.35
2022-09-28T19:32:40.061Z,12.45
2022-09-28T19:36:00.072Z,12.41
2022-09-28T19:39:15.151Z,12.40
2022-09-28T19:42:24.036Z,12.29
2022-09-28T19:45:33.304Z,12.25
2022-09-28T19:48:44.549Z,12.27
2022-09-28T19:55:15.472Z,12.47
2022-09-28T19:58:30.339Z,12.49
2022-09-28T20:01:36.707Z,12.27
2022-09-28T20:04:43.609Z,12.33
2022-09-28T20:07:48.659Z,12.31
2022-09-28T20:10:56.245Z,12.19
2022-09-28T20:14:03.594Z,12.25
2022-09-28T20:17:09.419Z,12.18
2022-09-28T20:20:13.609Z,12.13
2022-09-28T20:23:18.111Z,12.14
2022-09-28T20:26:22.761Z,12.29
2022-09-28T20:29:32.595Z,12.12
2022-09-28T20:32:38.309Z,12.18
2022-09-28T20:35:45.264Z,12.09
2022-09-28T20:38:54.037Z,12.23
2022-09-28T20:42:02.471Z,12.14
2022-09-28T20:45:13.331Z,12.16
2022-09-28T20:48:22.358Z,12.08
2022-09-28T20:51:31.378Z,12.07
2022-09-28T20:54:39.606Z,12.11
2022-09-28T20:57:47.768Z,12.08
2022-09-28T21:00:56.724Z,12.04
2022-09-28T21:04:06.027Z,12.05
2022-09-28T21:07:12.473Z,12.06
2022-09-28T21:10:18.902Z,12.02
2022-09-28T21:13:27.566Z,12.02
2022-09-28T21:16:37.590Z,12.03
2022-09-28T21:19:47.696Z,12.03
2022-09-28T21:22:53.045Z,12.11
2022-09-28T21:26:07.548Z,12.04
2022-09-28T21:29:15.578Z,12.02
2022-09-28T21:32:25.843Z,12.05
2022-09-28T21:35:35.400Z,11.97
2022-09-28T21:38:43.214Z,11.92
2022-09-28T21:41:50.258Z,11.87
2022-09-28T21:44:59.486Z,11.92
2022-09-28T21:48:07.126Z,11.85
2022-09-28T21:51:16.840Z,11.84
2022-09-28T21:54:29.447Z,11.84
2022-09-28T21:57:37.880Z,11.86
2022-09-28T22:00:46.363Z,11.94
2022-09-28T22:03:55.261Z,11.95
2022-09-28T22:07:01.910Z,11.93
2022-09-28T22:10:16.154Z,11.90
2022-09-28T22:13:25.482Z,11.87
2022-09-28T22:16:34.295Z,11.87
2022-09-28T22:19:43.840Z,11.88
2022-09-28T22:22:50.481Z,11.92
2022-09-28T22:26:00.111Z,11.94
2022-09-28T22:29:08.293Z,11.99
2022-09-28T22:32:14.019Z,12.11
2022-09-28T22:35:18.777Z,12.05
2022-09-28T22:38:36.379Z,12.06
2022-09-28T22:41:39.803Z,12.08
2022-09-28T22:44:45.553Z,12.12
2022-09-28T22:47:50.483Z,12.12
2022-09-28T22:50:57.533Z,12.06
2022-09-28T22:54:04.930Z,12.04
2022-09-28T22:57:10.864Z,12.01
2022-09-28T23:00:16.044Z,12.02
2022-09-28T23:03:21.907Z,12.13
2022-09-28T23:06:29.623Z,12.11
2022-09-28T23:09:37.195Z,12.01
2022-09-28T23:12:43.605Z,11.99
2022-09-28T23:16:03.086Z,12.06
2022-09-28T23:19:09.655Z,12.01
2022-09-28T23:22:14.865Z,11.97
2022-09-28T23:25:22.335Z,11.99
2022-09-28T23:28:30.100Z,11.92
2022-09-28T23:31:37.458Z,11.95
2022-09-28T23:34:44.021Z,12.08
2022-09-28T23:37:51.794Z,12.10
2022-09-28T23:40:55.567Z,12.03
2022-09-28T23:43:59.716Z,12.02
2022-09-28T23:47:04.535Z,12.05
2022-09-28T23:50:10.097Z,12.08
2022-09-28T23:53:15.708Z,12.13
2022-09-28T23:56:25.431Z,12.13
2022-09-28T23:59:33.532Z,12.08
